sensor_id;sensor_type;location;lat;lon;timestamp;pressure;altitude;pressure_sealevel;temperature;humidity
9077;BME280;4574;51.072;17.174;2023-02-10T00:01:51;101806.88;;;0.23;93.31
9077;BME280;4574;51.072;17.174;2023-02-10T00:04:19;101820.63;;;0.28;93.49
9077;BME280;4574;51.072;17.174;2023-02-10T00:06:48;101822.31;;;0.29;93.93
9077;BME280;4574;51.072;17.174;2023-02-10T00:09:17;101810.16;;;0.29;94.05
9077;BME280;4574;51.072;17.174;2023-02-10T00:11:49;101805.91;;;0.27;93.77
9077;BME280;4574;51.072;17.174;2023-02-10T00:14:30;101817.22;;;0.26;93.12
9077;BME280;4574;51.072;17.174;2023-02-10T00:17:00;101829.16;;;0.33;93.49
9077;BME280;4574;51.072;17.174;2023-02-10T00:19:30;101830.06;;;0.32;93.09
9077;BME280;4574;51.072;17.174;2023-02-10T00:22:01;101833.56;;;0.31;92.98
9077;BME280;4574;51.072;17.174;2023-02-10T00:24:30;101830.94;;;0.31;93.26
9077;BME280;4574;51.072;17.174;2023-02-10T00:26:59;101816.31;;;0.27;92.88
9077;BME280;4574;51.072;17.174;2023-02-10T00:29:28;101826.63;;;0.30;93.45
9077;BME280;4574;51.072;17.174;2023-02-10T00:31:59;101838.75;;;0.31;93.88
9077;BME280;4574;51.072;17.174;2023-02-10T00:34:28;101838.75;;;0.31;93.74
9077;BME280;4574;51.072;17.174;2023-02-10T00:36:57;101841.28;;;0.34;95.02
9077;BME280;4574;51.072;17.174;2023-02-10T00:39:26;101837.81;;;0.33;94.77
9077;BME280;4574;51.072;17.174;2023-02-10T00:41:54;101833.56;;;0.31;95.54
9077;BME280;4574;51.072;17.174;2023-02-10T00:44:23;101831.94;;;0.27;95.83
9077;BME280;4574;51.072;17.174;2023-02-10T00:46:52;101831.03;;;0.28;96.07
9077;BME280;4574;51.072;17.174;2023-02-10T00:49:22;101848.31;;;0.30;95.43
9077;BME280;4574;51.072;17.174;2023-02-10T00:51:50;101842.25;;;0.30;96.45
9077;BME280;4574;51.072;17.174;2023-02-10T00:54:19;101835.25;;;0.32;96.05
9077;BME280;4574;51.072;17.174;2023-02-10T00:56:47;101840.47;;;0.32;94.57
9077;BME280;4574;51.072;17.174;2023-02-10T00:59:19;101839.94;;;0.19;93.98
9077;BME280;4574;51.072;17.174;2023-02-10T01:01:49;101840.84;;;0.18;94.02
9077;BME280;4574;51.072;17.174;2023-02-10T01:04:24;101835.88;;;0.09;93.93
9077;BME280;4574;51.072;17.174;2023-02-10T01:06:54;101836.94;;;0.04;94.01
9077;BME280;4574;51.072;17.174;2023-02-10T01:09:23;101842.25;;;-0.02;94.41
9077;BME280;4574;51.072;17.174;2023-02-10T01:11:51;101837.06;;;-0.02;94.65
9077;BME280;4574;51.072;17.174;2023-02-10T01:14:20;101823.47;;;-0.11;93.94
9077;BME280;4574;51.072;17.174;2023-02-10T01:16:48;101817.38;;;-0.12;94.26
9077;BME280;4574;51.072;17.174;2023-02-10T01:19:17;101833.69;;;-0.05;94.80
9077;BME280;4574;51.072;17.174;2023-02-10T01:21:47;101807.03;;;-0.13;94.49
9077;BME280;4574;51.072;17.174;2023-02-10T01:24:16;101829.34;;;-0.05;94.50
9077;BME280;4574;51.072;17.174;2023-02-10T01:26:45;101818.19;;;-0.10;94.81
9077;BME280;4574;51.072;17.174;2023-02-10T01:29:14;101821.59;;;-0.08;94.81
9077;BME280;4574;51.072;17.174;2023-02-10T01:31:42;101812.19;;;-0.12;93.95
9077;BME280;4574;51.072;17.174;2023-02-10T01:34:11;101813.28;;;-0.20;94.15
9077;BME280;4574;51.072;17.174;2023-02-10T01:36:42;101805.75;;;-0.31;94.12
9077;BME280;4574;51.072;17.174;2023-02-10T01:39:15;101821.22;;;-0.25;94.80
9077;BME280;4574;51.072;17.174;2023-02-10T01:41:44;101829.09;;;-0.28;94.76
9077;BME280;4574;51.072;17.174;2023-02-10T01:47:18;101807.78;;;-0.42;95.08
9077;BME280;4574;51.072;17.174;2023-02-10T01:49:49;101811.28;;;-0.43;95.29
9077;BME280;4574;51.072;17.174;2023-02-10T01:52:20;101807.78;;;-0.42;95.65
9077;BME280;4574;51.072;17.174;2023-02-10T01:54:54;101794.03;;;-0.47;95.42
9077;BME280;4574;51.072;17.174;2023-02-10T01:57:24;101812.06;;;-0.39;95.90
9077;BME280;4574;51.072;17.174;2023-02-10T01:59:55;101805.09;;;-0.39;95.67
9077;BME280;4574;51.072;17.174;2023-02-10T02:02:24;101811.19;;;-0.38;95.04
9077;BME280;4574;51.072;17.174;2023-02-10T02:04:54;101800.78;;;-0.38;95.28
9077;BME280;4574;51.072;17.174;2023-02-10T02:07:25;101819.91;;;-0.41;95.52
9077;BME280;4574;51.072;17.174;2023-02-10T02:09:57;101810.44;;;-0.43;95.14
9077;BME280;4574;51.072;17.174;2023-02-10T02:12:35;101818.28;;;-0.45;95.15
9077;BME280;4574;51.072;17.174;2023-02-10T02:15:14;101826.22;;;-0.49;95.47
9077;BME280;4574;51.072;17.174;2023-02-10T02:17:52;101828.00;;;-0.51;95.20
9077;BME280;4574;51.072;17.174;2023-02-10T02:20:38;101827.19;;;-0.55;95.03
9077;BME280;4574;51.072;17.174;2023-02-10T02:23:20;101835.06;;;-0.56;95.34
9077;BME280;4574;51.072;17.174;2023-02-10T02:26:21;101818.72;;;-0.63;95.20
9077;BME280;4574;51.072;17.174;2023-02-10T02:29:09;101817.19;;;-0.70;96.19
9077;BME280;4574;51.072;17.174;2023-02-10T02:32:00;101809.59;;;-0.79;97.18
9077;BME280;4574;51.072;17.174;2023-02-10T02:34:35;101813.91;;;-0.78;97.44
9077;BME280;4574;51.072;17.174;2023-02-10T02:37:08;101795.19;;;-0.92;97.63
9077;BME280;4574;51.072;17.174;2023-02-10T02:39:41;101815.84;;;-0.86;97.41
9077;BME280;4574;51.072;17.174;2023-02-10T02:42:18;101819.34;;;-0.87;97.72
9077;BME280;4574;51.072;17.174;2023-02-10T02:44:50;101824.53;;;-0.87;97.84
9077;BME280;4574;51.072;17.174;2023-02-10T02:50:28;101816.94;;;-0.96;98.63
9077;BME280;4574;51.072;17.174;2023-02-10T02:53:19;101821.25;;;-0.95;98.99
9077;BME280;4574;51.072;17.174;2023-02-10T02:55:59;101816.13;;;-0.98;99.24
9077;BME280;4574;51.072;17.174;2023-02-10T02:58:35;101817.03;;;-1.00;100.00
9077;BME280;4574;51.072;17.174;2023-02-10T03:01:11;101805.81;;;-1.01;100.00
9077;BME280;4574;51.072;17.174;2023-02-10T03:03:42;101797.28;;;-1.06;99.83
9077;BME280;4574;51.072;17.174;2023-02-10T03:06:13;101799.97;;;-1.10;100.00
9077;BME280;4574;51.072;17.174;2023-02-10T03:08:42;101807.72;;;-1.09;100.00
9077;BME280;4574;51.072;17.174;2023-02-10T03:11:13;101804.34;;;-1.12;100.00
9077;BME280;4574;51.072;17.174;2023-02-10T03:13:45;101810.50;;;-1.16;100.00
9077;BME280;4574;51.072;17.174;2023-02-10T03:16:14;101802.81;;;-1.21;100.00
9077;BME280;4574;51.072;17.174;2023-02-10T03:18:46;101813.22;;;-1.21;99.85
9077;BME280;4574;51.072;17.174;2023-02-10T03:21:15;101816.69;;;-1.22;100.00
9077;BME280;4574;51.072;17.174;2023-02-10T03:23:44;101815.00;;;-1.23;99.85
9077;BME280;4574;51.072;17.174;2023-02-10T03:26:13;101809.00;;;-1.26;99.52
9077;BME280;4574;51.072;17.174;2023-02-10T03:28:42;101816.03;;;-1.31;99.41
9077;BME280;4574;51.072;17.174;2023-02-10T03:31:12;101828.88;;;-1.24;99.96
9077;BME280;4574;51.072;17.174;2023-02-10T03:33:41;101831.47;;;-1.24;100.00
9077;BME280;4574;51.072;17.174;2023-02-10T03:36:12;101820.34;;;-1.30;100.00
9077;BME280;4574;51.072;17.174;2023-02-10T03:38:40;101839.19;;;-1.21;100.00
9077;BME280;4574;51.072;17.174;2023-02-10T03:41:09;101828.94;;;-1.27;100.00
9077;BME280;4574;51.072;17.174;2023-02-10T03:43:38;101825.53;;;-1.30;99.97
9077;BME280;4574;51.072;17.174;2023-02-10T03:46:06;101842.69;;;-1.23;99.49
9077;BME280;4574;51.072;17.174;2023-02-10T03:48:35;101823.94;;;-1.35;99.25
9077;BME280;4574;51.072;17.174;2023-02-10T03:51:05;101833.25;;;-1.27;99.51
9077;BME280;4574;51.072;17.174;2023-02-10T03:53:36;101822.16;;;-1.33;99.59
9077;BME280;4574;51.072;17.174;2023-02-10T03:56:05;101838.44;;;-1.27;99.72
9077;BME280;4574;51.072;17.174;2023-02-10T03:58:34;101846.38;;;-1.32;99.20
9077;BME280;4574;51.072;17.174;2023-02-10T04:01:09;101836.25;;;-1.43;99.43
9077;BME280;4574;51.072;17.174;2023-02-10T04:03:42;101849.97;;;-1.38;99.79
9077;BME280;4574;51.072;17.174;2023-02-10T04:06:14;101851.69;;;-1.39;100.00
9077;BME280;4574;51.072;17.174;2023-02-10T04:08:52;101850.03;;;-1.41;99.90
9077;BME280;4574;51.072;17.174;2023-02-10T04:11:23;101828.59;;;-1.51;100.00
9077;BME280;4574;51.072;17.174;2023-02-10T04:13:54;101846.56;;;-1.42;100.00
9077;BME280;4574;51.072;17.174;2023-02-10T04:16:23;101834.66;;;-1.50;100.00
9077;BME280;4574;51.072;17.174;2023-02-10T04:19:00;101846.63;;;-1.43;99.83
9077;BME280;4574;51.072;17.174;2023-02-10T04:21:30;101860.44;;;-1.43;100.00
9077;BME280;4574;51.072;17.174;2023-02-10T04:24:02;101848.34;;;-1.42;99.97
9077;BME280;4574;51.072;17.174;2023-02-10T04:26:31;101857.91;;;-1.44;100.00
9077;BME280;4574;51.072;17.174;2023-02-10T04:28:59;101863.97;;;-1.45;100.00
9077;BME280;4574;51.072;17.174;2023-02-10T04:31:28;101866.47;;;-1.41;100.00
9077;BME280;4574;51.072;17.174;2023-02-10T04:33:57;101864.81;;;-1.43;100.00
9077;BME280;4574;51.072;17.174;2023-02-10T04:36:25;101862.28;;;-1.46;100.00
9077;BME280;4574;51.072;17.174;2023-02-10T04:38:54;101855.38;;;-1.47;100.00
9077;BME280;4574;51.072;17.174;2023-02-10T04:41:24;101845.25;;;-1.59;100.00
9077;BME280;4574;51.072;17.174;2023-02-10T04:43:52;101834.84;;;-1.59;99.97
9077;BME280;4574;51.072;17.174;2023-02-10T04:46:21;101850.38;;;-1.56;100.00
9077;BME280;4574;51.072;17.174;2023-02-10T04:48:50;101850.31;;;-1.53;100.00
9077;BME280;4574;51.072;17.174;2023-02-10T04:51:18;101857.28;;;-1.55;100.00
9077;BME280;4574;51.072;17.174;2023-02-10T04:53:47;101857.28;;;-1.55;100.00
9077;BME280;4574;51.072;17.174;2023-02-10T04:56:16;101865.06;;;-1.55;100.00
9077;BME280;4574;51.072;17.174;2023-02-10T04:58:46;101859.88;;;-1.55;100.00
9077;BME280;4574;51.072;17.174;2023-02-10T05:01:14;101864.16;;;-1.54;100.00
9077;BME280;4574;51.072;17.174;2023-02-10T05:03:43;101858.94;;;-1.53;100.00
9077;BME280;4574;51.072;17.174;2023-02-10T05:06:13;101865.81;;;-1.50;99.77
9077;BME280;4574;51.072;17.174;2023-02-10T05:08:42;101855.38;;;-1.47;99.76
9077;BME280;4574;51.072;17.174;2023-02-10T05:11:12;101863.03;;;-1.41;99.54
9077;BME280;4574;51.072;17.174;2023-02-10T05:13:41;101858.66;;;-1.39;99.35
9077;BME280;4574;51.072;17.174;2023-02-10T05:16:12;101850.81;;;-1.38;99.30
9077;BME280;4574;51.072;17.174;2023-02-10T05:18:41;101859.41;;;-1.34;99.42
9077;BME280;4574;51.072;17.174;2023-02-10T05:21:12;101859.34;;;-1.32;98.94
9077;BME280;4574;51.072;17.174;2023-02-10T05:23:42;101862.78;;;-1.31;98.80
9077;BME280;4574;51.072;17.174;2023-02-10T05:26:10;101866.25;;;-1.31;98.97
9077;BME280;4574;51.072;17.174;2023-02-10T05:28:38;101875.69;;;-1.27;98.63
9077;BME280;4574;51.072;17.174;2023-02-10T05:31:07;101877.41;;;-1.27;98.92
9077;BME280;4574;51.072;17.174;2023-02-10T05:33:37;101877.47;;;-1.30;99.51
9077;BME280;4574;51.072;17.174;2023-02-10T05:36:06;101864.38;;;-1.24;99.28
9077;BME280;4574;51.072;17.174;2023-02-10T05:38:36;101876.44;;;-1.22;99.21
9077;BME280;4574;51.072;17.174;2023-02-10T05:41:05;101879.03;;;-1.22;99.01
9077;BME280;4574;51.072;17.174;2023-02-10T05:43:33;101877.25;;;-1.20;99.90
9077;BME280;4574;51.072;17.174;2023-02-10T05:46:02;101875.50;;;-1.18;98.75
9077;BME280;4574;51.072;17.174;2023-02-10T05:48:30;101884.88;;;-1.12;98.98
9077;BME280;4574;51.072;17.174;2023-02-10T05:51:00;101883.22;;;-1.16;99.53
9077;BME280;4574;51.072;17.174;2023-02-10T05:53:28;101900.44;;;-1.11;100.00
9077;BME280;4574;51.072;17.174;2023-02-10T05:55:57;101904.75;;;-1.10;100.00
9077;BME280;4574;51.072;17.174;2023-02-10T05:58:26;101902.16;;;-1.10;99.85
9077;BME280;4574;51.072;17.174;2023-02-10T06:00:55;101894.28;;;-1.07;99.93
9077;BME280;4574;51.072;17.174;2023-02-10T06:03:23;101901.16;;;-1.04;100.00
9077;BME280;4574;51.072;17.174;2023-02-10T06:05:52;101898.53;;;-1.03;100.00
9077;BME280;4574;51.072;17.174;2023-02-10T06:08:22;101906.19;;;-0.97;100.00
9077;BME280;4574;51.072;17.174;2023-02-10T06:10:51;101907.91;;;-0.96;100.00
9077;BME280;4574;51.072;17.174;2023-02-10T06:13:19;101900.94;;;-0.94;100.00
9077;BME280;4574;51.072;17.174;2023-02-10T06:15:48;101921.59;;;-0.88;100.00
9077;BME280;4574;51.072;17.174;2023-02-10T06:18:16;101908.53;;;-0.85;100.00
9077;BME280;4574;51.072;17.174;2023-02-10T06:20:46;101919.66;;;-0.80;100.00
9077;BME280;4574;51.072;17.174;2023-02-10T06:23:15;101916.94;;;-0.74;100.00
9077;BME280;4574;51.072;17.174;2023-02-10T06:25:45;101925.47;;;-0.69;99.68
9077;BME280;4574;51.072;17.174;2023-02-10T06:28:14;101922.78;;;-0.64;99.91
9077;BME280;4574;51.072;17.174;2023-02-10T06:30:44;101925.34;;;-0.63;100.00
9077;BME280;4574;51.072;17.174;2023-02-10T06:33:13;101924.53;;;-0.65;100.00
9077;BME280;4574;51.072;17.174;2023-02-10T06:35:42;101938.19;;;-0.57;100.00
9077;BME280;4574;51.072;17.174;2023-02-10T06:38:11;101939.91;;;-0.56;100.00
9077;BME280;4574;51.072;17.174;2023-02-10T06:40:39;101943.31;;;-0.52;100.00
9077;BME280;4574;51.072;17.174;2023-02-10T06:43:10;101936.34;;;-0.52;100.00
9077;BME280;4574;51.072;17.174;2023-02-10T06:45:39;101939.69;;;-0.47;100.00
9077;BME280;4574;51.072;17.174;2023-02-10T06:48:07;101937.97;;;-0.48;99.98
9077;BME280;4574;51.072;17.174;2023-02-10T06:50:36;101937.84;;;-0.42;99.79
9077;BME280;4574;51.072;17.174;2023-02-10T06:53:06;101944.69;;;-0.38;99.19
9077;BME280;4574;51.072;17.174;2023-02-10T06:55:35;101948.91;;;-0.34;99.30
9077;BME280;4574;51.072;17.174;2023-02-10T06:58:03;101947.13;;;-0.32;99.51
9077;BME280;4574;51.072;17.174;2023-02-10T07:00:34;101949.72;;;-0.32;99.68
9077;BME280;4574;51.072;17.174;2023-02-10T07:03:02;101954.78;;;-0.26;99.41
9077;BME280;4574;51.072;17.174;2023-02-10T07:05:31;101957.28;;;-0.21;99.11
9077;BME280;4574;51.072;17.174;2023-02-10T07:08:02;101952.91;;;-0.19;99.29
9077;BME280;4574;51.072;17.174;2023-02-10T07:10:34;101944.06;;;-0.14;98.75
9077;BME280;4574;51.072;17.174;2023-02-10T07:13:03;101953.53;;;-0.10;98.67
9077;BME280;4574;51.072;17.174;2023-02-10T07:15:33;101948.28;;;-0.08;99.21
9077;BME280;4574;51.072;17.174;2023-02-10T07:18:02;101952.56;;;-0.06;98.91
9077;BME280;4574;51.072;17.174;2023-02-10T07:20:31;101945.47;;;-0.01;97.86
9077;BME280;4574;51.072;17.174;2023-02-10T07:23:00;101964.47;;;0.04;98.07
9077;BME280;4574;51.072;17.174;2023-02-10T07:25:29;101948.94;;;0.01;97.37
9077;BME280;4574;51.072;17.174;2023-02-10T07:27:58;101953.97;;;0.07;97.75
9077;BME280;4574;51.072;17.174;2023-02-10T07:30:26;101967.56;;;0.18;96.74
9077;BME280;4574;51.072;17.174;2023-02-10T07:32:57;101970.91;;;0.23;96.57
9077;BME280;4574;51.072;17.174;2023-02-10T07:35:26;101970.75;;;0.29;96.89
9077;BME280;4574;51.072;17.174;2023-02-10T07:37:55;101968.09;;;0.30;96.38
9077;BME280;4574;51.072;17.174;2023-02-10T07:40:24;101974.84;;;0.39;95.48
9077;BME280;4574;51.072;17.174;2023-02-10T07:42:56;101978.13;;;0.45;95.00
9077;BME280;4574;51.072;17.174;2023-02-10T07:45:24;101973.03;;;0.41;95.50
9077;BME280;4574;51.072;17.174;2023-02-10T07:47:59;101984.88;;;0.52;94.96
9077;BME280;4574;51.072;17.174;2023-02-10T07:50:28;101982.97;;;0.59;95.30
9077;BME280;4574;51.072;17.174;2023-02-10T07:53:00;101977.63;;;0.63;94.79
9077;BME280;4574;51.072;17.174;2023-02-10T07:55:28;101971.56;;;0.63;95.18
9077;BME280;4574;51.072;17.174;2023-02-10T07:57:57;101970.50;;;0.70;95.29
9077;BME280;4574;51.072;17.174;2023-02-10T08:00:26;101973.91;;;0.72;95.23
9077;BME280;4574;51.072;17.174;2023-02-10T08:02:55;101966.00;;;0.75;94.94
9077;BME280;4574;51.072;17.174;2023-02-10T08:05:25;101964.97;;;0.80;95.69
9077;BME280;4574;51.072;17.174;2023-02-10T08:07:55;101977.97;;;0.82;95.92
9077;BME280;4574;51.072;17.174;2023-02-10T08:10:24;101973.53;;;0.85;96.33
9077;BME280;4574;51.072;17.174;2023-02-10T08:12:53;101974.28;;;0.89;96.02
9077;BME280;4574;51.072;17.174;2023-02-10T08:15:22;101974.22;;;0.92;96.35
9077;BME280;4574;51.072;17.174;2023-02-10T08:17:52;101970.63;;;0.96;96.48
9077;BME280;4574;51.072;17.174;2023-02-10T08:20:21;101967.84;;;1.02;96.85
9077;BME280;4574;51.072;17.174;2023-02-10T08:22:54;101959.09;;;1.03;96.75
9077;BME280;4574;51.072;17.174;2023-02-10T08:25:23;101958.22;;;1.04;97.17
9077;BME280;4574;51.072;17.174;2023-02-10T08:27:52;101975.13;;;1.20;97.08
9077;BME280;4574;51.072;17.174;2023-02-10T08:30:21;101972.31;;;1.26;96.92
9077;BME280;4574;51.072;17.174;2023-02-10T08:32:50;101967.88;;;1.29;97.21
9077;BME280;4574;51.072;17.174;2023-02-10T08:35:19;101968.53;;;1.35;97.21
9077;BME280;4574;51.072;17.174;2023-02-10T08:37:48;101976.16;;;1.41;97.50
9077;BME280;4574;51.072;17.174;2023-02-10T08:40:20;101958.81;;;1.40;97.34
9077;BME280;4574;51.072;17.174;2023-02-10T08:42:48;101970.75;;;1.47;98.10
9077;BME280;4574;51.072;17.174;2023-02-10T08:45:19;101972.44;;;1.50;99.40
9077;BME280;4574;51.072;17.174;2023-02-10T08:47:47;101971.38;;;1.55;100.00
9077;BME280;4574;51.072;17.174;2023-02-10T08:50:16;101971.44;;;1.54;99.94
9077;BME280;4574;51.072;17.174;2023-02-10T08:52:45;101986.91;;;1.60;100.00
9077;BME280;4574;51.072;17.174;2023-02-10T08:55:13;101979.81;;;1.63;100.00
9077;BME280;4574;51.072;17.174;2023-02-10T08:57:43;101984.84;;;1.69;100.00
9077;BME280;4574;51.072;17.174;2023-02-10T09:00:13;101979.56;;;1.72;100.00
9077;BME280;4574;51.072;17.174;2023-02-10T09:02:41;101971.53;;;1.78;100.00
9077;BME280;4574;51.072;17.174;2023-02-10T09:05:10;101968.94;;;1.78;100.00
9077;BME280;4574;51.072;17.174;2023-02-10T09:07:39;101967.75;;;1.87;100.00
9077;BME280;4574;51.072;17.174;2023-02-10T09:10:09;101960.13;;;1.81;100.00
9077;BME280;4574;51.072;17.174;2023-02-10T09:12:39;101963.31;;;1.90;100.00
9077;BME280;4574;51.072;17.174;2023-02-10T09:15:11;101977.97;;;1.94;100.00
9077;BME280;4574;51.072;17.174;2023-02-10T09:17:39;101961.63;;;1.88;100.00
9077;BME280;4574;51.072;17.174;2023-02-10T09:20:09;101987.31;;;2.01;100.00
9077;BME280;4574;51.072;17.174;2023-02-10T09:22:38;101986.41;;;2.02;100.00
9077;BME280;4574;51.072;17.174;2023-02-10T09:25:07;101988.03;;;2.06;100.00
9077;BME280;4574;51.072;17.174;2023-02-10T09:27:36;101988.66;;;2.13;100.00
9077;BME280;4574;51.072;17.174;2023-02-10T09:30:05;101990.16;;;2.20;100.00
9077;BME280;4574;51.072;17.174;2023-02-10T09:32:35;101990.94;;;2.23;100.00
9077;BME280;4574;51.072;17.174;2023-02-10T09:35:04;101985.63;;;2.25;100.00
9077;BME280;4574;51.072;17.174;2023-02-10T09:37:33;101987.00;;;2.36;100.00
9077;BME280;4574;51.072;17.174;2023-02-10T09:40:01;101988.47;;;2.43;100.00
9077;BME280;4574;51.072;17.174;2023-02-10T09:42:42;102000.44;;;2.50;100.00
9077;BME280;4574;51.072;17.174;2023-02-10T09:45:18;101999.22;;;2.60;100.00
9077;BME280;4574;51.072;17.174;2023-02-10T09:47:56;101994.66;;;2.65;100.00
9077;BME280;4574;51.072;17.174;2023-02-10T09:50:51;102006.63;;;2.72;100.00
9077;BME280;4574;51.072;17.174;2023-02-10T09:53:25;102013.34;;;2.79;100.00
9077;BME280;4574;51.072;17.174;2023-02-10T09:55:56;102005.28;;;2.85;100.00
9077;BME280;4574;51.072;17.174;2023-02-10T09:58:31;102003.47;;;2.87;100.00
9077;BME280;4574;51.072;17.174;2023-02-10T10:01:03;101989.31;;;2.92;100.00
9077;BME280;4574;51.072;17.174;2023-02-10T10:03:40;102014.06;;;3.07;100.00
9077;BME280;4574;51.072;17.174;2023-02-10T10:06:16;102013.09;;;3.09;100.00
9077;BME280;4574;51.072;17.174;2023-02-10T10:08:55;102016.44;;;3.13;100.00
9077;BME280;4574;51.072;17.174;2023-02-10T10:11:37;102010.41;;;3.11;100.00
9077;BME280;4574;51.072;17.174;2023-02-10T10:14:17;102015.53;;;3.14;100.00
9077;BME280;4574;51.072;17.174;2023-02-10T10:19:51;102028.47;;;3.18;100.00
9077;BME280;4574;51.072;17.174;2023-02-10T10:22:35;102006.53;;;3.21;100.00
9077;BME280;4574;51.072;17.174;2023-02-10T10:25:41;102014.97;;;3.29;100.00
9077;BME280;4574;51.072;17.174;2023-02-10T10:28:23;101997.66;;;3.25;100.00
9077;BME280;4574;51.072;17.174;2023-02-10T10:30:58;102015.47;;;3.38;100.00
9077;BME280;4574;51.072;17.174;2023-02-10T10:33:35;102013.53;;;3.43;100.00
9077;BME280;4574;51.072;17.174;2023-02-10T10:36:13;102006.44;;;3.47;100.00
9077;BME280;4574;51.072;17.174;2023-02-10T10:38:46;102008.94;;;3.50;100.00
9077;BME280;4574;51.072;17.174;2023-02-10T10:41:16;102002.72;;;3.52;100.00
9077;BME280;4574;51.072;17.174;2023-02-10T10:43:47;101977.78;;;3.44;100.00
9077;BME280;4574;51.072;17.174;2023-02-10T10:46:21;101997.59;;;3.49;100.00
9077;BME280;4574;51.072;17.174;2023-02-10T10:48:52;101986.84;;;3.57;100.00
9077;BME280;4574;51.072;17.174;2023-02-10T10:51:23;101991.78;;;3.64;100.00
9077;BME280;4574;51.072;17.174;2023-02-10T10:53:54;101992.94;;;3.79;100.00
9077;BME280;4574;51.072;17.174;2023-02-10T10:56:31;101983.50;;;3.75;100.00
9077;BME280;4574;51.072;17.174;2023-02-10T10:59:10;101979.66;;;3.83;100.00
9077;BME280;4574;51.072;17.174;2023-02-10T11:01:42;101982.03;;;3.89;100.00
9077;BME280;4574;51.072;17.174;2023-02-10T11:04:13;101971.53;;;3.89;100.00
9077;BME280;4574;51.072;17.174;2023-02-10T11:06:46;101971.25;;;3.96;100.00
9077;BME280;4574;51.072;17.174;2023-02-10T11:09:21;101982.38;;;4.01;100.00
9077;BME280;4574;51.072;17.174;2023-02-10T11:11:50;101972.69;;;4.03;100.00
9077;BME280;4574;51.072;17.174;2023-02-10T11:14:23;101988.28;;;4.06;100.00
9077;BME280;4574;51.072;17.174;2023-02-10T11:16:56;101962.09;;;4.06;100.00
9077;BME280;4574;51.072;17.174;2023-02-10T11:19:30;101974.44;;;4.03;100.00
9077;BME280;4574;51.072;17.174;2023-02-10T11:22:18;101973.88;;;3.96;100.00
9077;BME280;4574;51.072;17.174;2023-02-10T11:24:50;101966.91;;;3.95;100.00
9077;BME280;4574;51.072;17.174;2023-02-10T11:27:19;101987.88;;;3.95;100.00
9077;BME280;4574;51.072;17.174;2023-02-10T11:29:50;101973.75;;;3.99;100.00
9077;BME280;4574;51.072;17.174;2023-02-10T11:32:21;101976.28;;;4.01;100.00
9077;BME280;4574;51.072;17.174;2023-02-10T11:34:53;101960.09;;;3.92;100.00
9077;BME280;4574;51.072;17.174;2023-02-10T11:37:27;101967.63;;;3.99;100.00
9077;BME280;4574;51.072;17.174;2023-02-10T11:39:57;101963.97;;;4.03;100.00
9077;BME280;4574;51.072;17.174;2023-02-10T11:42:29;101954.22;;;4.06;100.00
9077;BME280;4574;51.072;17.174;2023-02-10T11:45:01;101961.84;;;4.12;100.00
9077;BME280;4574;51.072;17.174;2023-02-10T11:47:31;101964.19;;;4.18;100.00
9077;BME280;4574;51.072;17.174;2023-02-10T11:50:01;101975.25;;;4.25;100.00
9077;BME280;4574;51.072;17.174;2023-02-10T11:52:31;101973.47;;;4.27;100.00
9077;BME280;4574;51.072;17.174;2023-02-10T11:55:02;101967.22;;;4.29;100.00
9077;BME280;4574;51.072;17.174;2023-02-10T11:57:40;101968.00;;;4.31;100.00
9077;BME280;4574;51.072;17.174;2023-02-10T12:00:35;101955.81;;;4.30;100.00
9077;BME280;4574;51.072;17.174;2023-02-10T12:03:32;101960.75;;;4.38;100.00
9077;BME280;4574;51.072;17.174;2023-02-10T12:06:09;101958.03;;;4.39;100.00
9077;BME280;4574;51.072;17.174;2023-02-10T12:08:51;101964.88;;;4.43;100.00
9077;BME280;4574;51.072;17.174;2023-02-10T12:11:27;101971.09;;;4.41;100.00
9077;BME280;4574;51.072;17.174;2023-02-10T12:14:02;101966.56;;;4.44;100.00
9077;BME280;4574;51.072;17.174;2023-02-10T12:16:41;101965.59;;;4.47;100.00
9077;BME280;4574;51.072;17.174;2023-02-10T12:19:25;101971.41;;;4.53;100.00
9077;BME280;4574;51.072;17.174;2023-02-10T12:22:05;101966.03;;;4.56;100.00
9077;BME280;4574;51.072;17.174;2023-02-10T12:24:50;101969.59;;;4.55;100.00
9077;BME280;4574;51.072;17.174;2023-02-10T12:27:34;101957.53;;;4.51;100.00
9077;BME280;4574;51.072;17.174;2023-02-10T12:30:09;101969.44;;;4.58;100.00
9077;BME280;4574;51.072;17.174;2023-02-10T12:32:49;101978.38;;;4.54;100.00
9077;BME280;4574;51.072;17.174;2023-02-10T12:35:28;101976.66;;;4.53;100.00
9077;BME280;4574;51.072;17.174;2023-02-10T12:38:07;101978.31;;;4.56;100.00
9077;BME280;4574;51.072;17.174;2023-02-10T12:41:03;101970.63;;;4.51;100.00
9077;BME280;4574;51.072;17.174;2023-02-10T12:46:36;101968.88;;;4.52;100.00
9077;BME280;4574;51.072;17.174;2023-02-10T12:49:18;101975.69;;;4.56;100.00
9077;BME280;4574;51.072;17.174;2023-02-10T12:52:00;101980.84;;;4.57;100.00
9077;BME280;4574;51.072;17.174;2023-02-10T12:54:35;101977.41;;;4.57;100.00
9077;BME280;4574;51.072;17.174;2023-02-10T12:57:16;101980.06;;;4.55;100.00
9077;BME280;4574;51.072;17.174;2023-02-10T12:59:54;101973.25;;;4.51;100.00
9077;BME280;4574;51.072;17.174;2023-02-10T13:02:27;101960.41;;;4.45;100.00
9077;BME280;4574;51.072;17.174;2023-02-10T13:05:04;101960.94;;;4.53;100.00
9077;BME280;4574;51.072;17.174;2023-02-10T13:07:40;101968.47;;;4.61;100.00
9077;BME280;4574;51.072;17.174;2023-02-10T13:10:26;101973.91;;;4.56;100.00
9077;BME280;4574;51.072;17.174;2023-02-10T13:13:00;101974.13;;;4.52;100.00
9077;BME280;4574;51.072;17.174;2023-02-10T13:15:33;101959.44;;;4.48;100.00
9077;BME280;4574;51.072;17.174;2023-02-10T13:18:16;101978.22;;;4.57;100.00
9077;BME280;4574;51.072;17.174;2023-02-10T13:20:52;101945.47;;;4.47;100.00
9077;BME280;4574;51.072;17.174;2023-02-10T13:23:29;101973.63;;;4.62;100.00
9077;BME280;4574;51.072;17.174;2023-02-10T13:26:23;101965.91;;;4.59;100.00
9077;BME280;4574;51.072;17.174;2023-02-10T13:29:00;101977.19;;;4.61;100.00
9077;BME280;4574;51.072;17.174;2023-02-10T13:31:45;101979.94;;;4.58;100.00
9077;BME280;4574;51.072;17.174;2023-02-10T13:34:21;101953.84;;;4.55;100.00
9077;BME280;4574;51.072;17.174;2023-02-10T13:36:55;101981.25;;;4.68;100.00
9077;BME280;4574;51.072;17.174;2023-02-10T13:39:26;101981.09;;;4.71;100.00